Time;durP1;ratioP1;P1;durP2;ratioP2;P2;SDS_P1;SDS_P2;PMS_P1;PMS_P2;Temp;Humidity;BMP_temperature;BMP_pressure;BME280_temperature;BME280_humidity;BME280_pressure;Samples;Min_cycle;Max_cycle;Signal;HPM_P1;HPM_P2
2023/10/18 00:02:00;;;;;;;8.52;6.00;;;;;;;8.44;100.00;101176.09;5262538;28;20040;-71
2023/10/18 00:04:32;;;;;;;7.68;5.63;;;;;;;8.40;100.00;101170.28;5261711;28;20051;-71
2023/10/18 00:07:04;;;;;;;8.10;5.68;;;;;;;8.40;100.00;101170.28;5261173;28;20574;-71
2023/10/18 00:09:45;;;;;;;9.10;5.82;;;;;;;8.40;100.00;101167.66;5265215;28;20460;-71
2023/10/18 00:12:21;;;;;;;7.07;5.65;;;;;;;8.40;100.00;101170.28;5266647;28;20032;-71
2023/10/18 00:14:52;;;;;;;7.60;6.03;;;;;;;8.42;100.00;101163.19;5267938;28;20385;-71
2023/10/18 00:17:26;;;;;;;9.55;5.97;;;;;;;8.42;100.00;101165.78;5269507;28;20025;-71
2023/10/18 00:19:57;;;;;;;6.95;5.88;;;;;;;8.47;100.00;101171.50;5272025;28;20052;-71
2023/10/18 00:22:29;;;;;;;7.90;5.88;;;;;;;8.43;100.00;101166.63;5271776;28;20039;-71
2023/10/18 00:25:01;;;;;;;8.88;6.43;;;;;;;8.40;100.00;101162.44;5270802;28;20028;-71
2023/10/18 00:27:34;;;;;;;7.80;5.78;;;;;;;8.42;100.00;101160.56;5266660;28;20052;-71
2023/10/18 00:30:11;;;;;;;6.63;5.57;;;;;;;8.46;100.00;101163.78;5267185;28;20033;-71
2023/10/18 00:32:43;;;;;;;9.07;6.50;;;;;;;8.40;100.00;101159.81;5267986;28;20025;-70
2023/10/18 00:35:21;;;;;;;6.60;5.85;;;;;;;8.42;100.00;101162.34;5250814;28;20460;-71
2023/10/18 00:37:54;;;;;;;7.00;5.50;;;;;;;8.40;100.00;101157.22;5268123;28;20035;-71
2023/10/18 00:43:08;;;;;;;6.05;5.13;;;;;;;8.42;100.00;101163.19;5270861;28;20040;-71
2023/10/18 00:45:44;;;;;;;9.23;5.72;;;;;;;8.47;100.00;101153.22;5270717;28;20043;-71
2023/10/18 00:48:23;;;;;;;7.05;5.55;;;;;;;8.59;100.00;101153.31;5267055;28;20039;-71
2023/10/18 00:50:57;;;;;;;6.95;5.53;;;;;;;8.52;100.00;101153.75;5266426;28;20482;-71
2023/10/18 00:53:33;;;;;;;6.60;5.55;;;;;;;8.48;100.00;101152.28;5269328;28;20040;-71
2023/10/18 00:56:06;;;;;;;8.60;5.22;;;;;;;8.48;100.00;101143.63;5268519;28;20028;-71
2023/10/18 00:58:41;;;;;;;6.75;5.75;;;;;;;8.48;100.00;101147.06;5267223;28;20033;-71
2023/10/18 01:01:13;;;;;;;7.43;5.78;;;;;;;8.44;100.00;101136.94;5269177;28;20021;-71
2023/10/18 01:03:49;;;;;;;7.05;5.80;;;;;;;8.43;100.00;101125.66;5269059;28;20033;-71
2023/10/18 01:06:24;;;;;;;7.55;6.25;;;;;;;8.42;100.00;101129.25;5269119;28;20481;-71
2023/10/18 01:08:56;;;;;;;7.05;5.97;;;;;;;8.44;100.00;101121.28;5266065;28;20029;-70
2023/10/18 01:11:28;;;;;;;6.32;5.63;;;;;;;8.38;100.00;101117.34;5268799;28;20029;-71
2023/10/18 01:14:00;;;;;;;6.88;5.57;;;;;;;8.48;100.00;101114.91;5265526;28;20044;-71
2023/10/18 01:16:36;;;;;;;5.85;5.35;;;;;;;8.41;100.00;101105.81;5267940;28;20024;-71
2023/10/18 01:19:13;;;;;;;7.03;5.45;;;;;;;8.41;100.00;101101.47;5270306;28;20052;-71
2023/10/18 01:21:51;;;;;;;9.73;6.45;;;;;;;8.49;100.00;101098.31;5267018;28;20025;-71
2023/10/18 01:24:28;;;;;;;7.53;5.95;;;;;;;8.55;100.00;101097.00;5268302;28;20029;-71
2023/10/18 01:27:00;;;;;;;6.88;5.88;;;;;;;8.45;100.00;101097.69;5249594;28;20063;-71
2023/10/18 01:29:33;;;;;;;6.97;5.85;;;;;;;8.55;100.00;101097.00;5265273;28;20389;-71
2023/10/18 01:32:04;;;;;;;9.48;5.63;;;;;;;8.45;100.00;101087.25;5268120;28;20028;-71
2023/10/18 01:34:37;;;;;;;6.82;5.45;;;;;;;8.41;100.00;101088.41;5267935;28;20448;-71
2023/10/18 01:37:10;;;;;;;7.43;5.68;;;;;;;8.43;100.00;101089.13;5268856;28;20036;-70
2023/10/18 01:39:42;;;;;;;7.07;5.93;;;;;;;8.40;100.00;101084.13;5265323;28;20044;-71
2023/10/18 01:42:14;;;;;;;6.80;5.63;;;;;;;8.40;100.00;101078.88;5267378;28;20121;-71
2023/10/18 01:44:48;;;;;;;8.30;5.78;;;;;;;8.37;100.00;101067.81;5267427;28;20052;-71
2023/10/18 01:47:21;;;;;;;7.90;5.90;;;;;;;8.37;100.00;101067.81;5268686;28;20025;-71
2023/10/18 01:49:53;;;;;;;7.90;5.82;;;;;;;8.36;100.00;101066.16;5268381;28;20039;-71
2023/10/18 01:52:25;;;;;;;10.20;5.90;;;;;;;8.38;100.00;101061.69;5266664;28;20475;-71
2023/10/18 01:54:57;;;;;;;8.52;5.60;;;;;;;8.31;100.00;101058.66;5270483;28;20024;-71
2023/10/18 01:57:29;;;;;;;7.45;5.40;;;;;;;8.31;100.00;101047.38;5257065;28;20120;-71
2023/10/18 02:00:01;;;;;;;6.07;5.32;;;;;;;8.31;100.00;101044.78;5259488;28;20096;-71
2023/10/18 02:02:32;;;;;;;8.95;5.90;;;;;;;8.29;100.00;101040.47;5260354;28;20104;-71
2023/10/18 02:05:05;;;;;;;10.75;5.47;;;;;;;8.27;100.00;101041.53;5260256;28;20107;-70
2023/10/18 02:07:38;;;;;;;8.32;6.13;;;;;;;8.28;100.00;101035.38;5259164;28;20055;-70
2023/10/18 02:10:11;;;;;;;6.18;4.80;;;;;;;8.27;100.00;101041.53;5257586;28;20037;-71
2023/10/18 02:12:44;;;;;;;7.43;5.20;;;;;;;8.29;100.00;101034.41;5261431;28;20040;-71
2023/10/18 02:15:16;;;;;;;7.03;5.60;;;;;;;8.30;100.00;101033.50;5257285;28;20459;-71
2023/10/18 02:17:51;;;;;;;7.72;5.32;;;;;;;8.21;100.00;101026.31;5259289;28;20127;-71
2023/10/18 02:20:26;;;;;;;9.80;5.45;;;;;;;8.21;100.00;101023.69;5256136;28;20386;-71
2023/10/18 02:23:02;;;;;;;7.60;5.50;;;;;;;8.15;100.00;101009.34;5256688;28;20041;-71
2023/10/18 02:28:23;;;;;;;6.40;4.97;;;;;;;8.30;100.00;101028.28;5256343;28;20055;-70
2023/10/18 02:31:13;;;;;;;8.57;5.50;;;;;;;8.19;100.00;101033.44;5256267;28;20025;-70
2023/10/18 02:33:45;;;;;;;7.70;5.40;;;;;;;8.20;100.00;101027.25;5257057;28;20045;-71
2023/10/18 02:36:32;;;;;;;7.72;4.82;;;;;;;8.20;100.00;101027.25;5257139;28;20111;-71
2023/10/18 02:39:09;;;;;;;8.00;5.63;;;;;;;8.17;100.00;101025.69;5258718;28;20024;-71
2023/10/18 02:41:41;;;;;;;7.80;5.15;;;;;;;8.15;100.00;101017.16;5258843;28;20044;-71
2023/10/18 02:44:21;;;;;;;8.27;5.90;;;;;;;8.10;100.00;101013.19;5240486;28;20041;-71
2023/10/18 02:46:55;;;;;;;7.45;5.28;;;;;;;8.10;100.00;101008.81;5257026;28;20040;-71
2023/10/18 02:49:28;;;;;;;7.55;5.63;;;;;;;8.13;100.00;101007.75;5258240;28;20043;-71
2023/10/18 02:51:59;;;;;;;5.95;4.88;;;;;;;8.17;100.00;101002.22;5258360;28;20033;-71
2023/10/18 02:54:35;;;;;;;10.48;5.80;;;;;;;8.11;100.00;100997.44;5258234;28;20036;-71
2023/10/18 02:57:07;;;;;;;5.47;4.75;;;;;;;8.15;100.00;100996.28;5256080;28;20032;-71
2023/10/18 02:59:41;;;;;;;8.35;5.60;;;;;;;8.13;100.00;100997.31;5257206;28;20386;-71
2023/10/18 03:02:15;;;;;;;6.75;5.47;;;;;;;8.06;100.00;100989.09;5252018;28;20501;-71
2023/10/18 03:04:52;;;;;;;10.00;6.20;;;;;;;8.10;100.00;100987.09;5254562;28;20041;-71
2023/10/18 03:07:24;;;;;;;7.32;5.38;;;;;;;8.08;100.00;100978.56;5254605;28;20028;-70
2023/10/18 03:10:11;;;;;;;8.68;5.60;;;;;;;8.07;100.00;100982.09;5258011;28;20385;-70
2023/10/18 03:12:44;;;;;;;8.60;5.50;;;;;;;8.05;100.00;100983.06;5257614;28;20033;-71
2023/10/18 03:15:21;;;;;;;9.38;5.28;;;;;;;8.08;100.00;100974.19;5257232;28;20413;-71
2023/10/18 03:17:56;;;;;;;8.95;5.72;;;;;;;8.05;100.00;100970.00;5255489;28;20016;-71
2023/10/18 03:20:28;;;;;;;6.97;5.50;;;;;;;7.99;100.00;100962.63;5257548;28;20024;-70
2023/10/18 03:23:02;;;;;;;9.40;6.23;;;;;;;8.07;100.00;100963.84;5257686;28;20295;-71
2023/10/18 03:25:34;;;;;;;7.72;5.75;;;;;;;8.01;100.00;100963.34;5259894;28;20029;-70
2023/10/18 03:28:13;;;;;;;8.43;5.75;;;;;;;8.03;100.00;100964.09;5257600;28;20029;-70
2023/10/18 03:30:44;;;;;;;8.48;6.00;;;;;;;8.00;100.00;100953.88;5257918;28;20029;-71
2023/10/18 03:33:18;;;;;;;7.15;5.88;;;;;;;8.00;100.00;100950.44;5257647;28;20044;-70
2023/10/18 03:36:06;;;;;;;8.02;6.10;;;;;;;8.19;100.00;100955.16;5257752;28;20039;-71
2023/10/18 03:38:41;;;;;;;7.20;5.32;;;;;;;8.00;100.00;100951.25;5257278;28;20493;-71
2023/10/18 03:41:16;;;;;;;6.25;5.45;;;;;;;8.05;100.00;100943.91;5256765;28;20471;-71
2023/10/18 03:43:49;;;;;;;8.27;6.05;;;;;;;7.98;100.00;100934.03;5256638;28;20486;-70
2023/10/18 03:46:29;;;;;;;8.13;6.13;;;;;;;8.03;100.00;100930.16;5253540;28;20041;-70
2023/10/18 03:49:01;;;;;;;6.88;5.43;;;;;;;7.98;100.00;100921.81;5257976;28;20771;-70
2023/10/18 03:51:34;;;;;;;9.20;5.78;;;;;;;7.96;100.00;100921.13;5257832;28;20383;-70
2023/10/18 03:54:06;;;;;;;8.87;5.83;;;;;;;8.03;100.00;100926.69;5260369;28;20024;-70
2023/10/18 03:56:38;;;;;;;8.43;6.25;;;;;;;8.02;100.00;100912.81;5259292;28;20083;-69
2023/10/18 03:59:20;;;;;;;7.63;6.43;;;;;;;8.06;100.00;100913.44;5259224;28;20115;-70
2023/10/18 04:02:06;;;;;;;9.32;5.75;;;;;;;8.02;100.00;100910.22;5258430;28;20036;-69
2023/10/18 04:04:44;;;;;;;8.18;5.80;;;;;;;8.06;100.00;100908.22;5258423;28;20041;-70
2023/10/18 04:07:16;;;;;;;8.73;6.25;;;;;;;8.03;100.00;100898.84;5258761;28;20025;-70
2023/10/18 04:10:06;;;;;;;6.72;5.80;;;;;;;8.05;100.00;100901.34;5261794;28;20052;-69
2023/10/18 04:12:40;;;;;;;8.27;5.97;;;;;;;8.07;100.00;100902.06;5259126;28;20032;-70
2023/10/18 04:15:22;;;;;;;6.60;5.22;;;;;;;8.07;100.00;100899.47;5258103;28;20036;-69
2023/10/18 04:18:10;;;;;;;8.23;5.68;;;;;;;8.05;100.00;100896.94;5257751;28;20382;-70
2023/10/18 04:20:46;;;;;;;7.75;5.57;;;;;;;8.12;100.00;100883.47;5261125;28;20684;-70
2023/10/18 04:23:19;;;;;;;9.02;5.65;;;;;;;8.11;100.00;100887.03;5262535;28;20458;-70
2023/10/18 04:25:58;;;;;;;;;;;;;;;8.73;100.00;100871.06;5262256;28;20078;-70
2023/10/18 04:28:37;;;;;;;7.82;5.60;;;;;;;8.17;100.00;100874.34;5258485;28;19917;-70
2023/10/18 04:31:11;;;;;;;8.52;6.45;;;;;;;8.15;100.00;100878.03;5256619;28;20044;-70
2023/10/18 04:33:49;;;;;;;6.82;5.22;;;;;;;8.17;100.00;100873.50;5257141;28;20025;-70
2023/10/18 04:36:21;;;;;;;8.48;5.15;;;;;;;8.15;100.00;100854.53;5258130;28;20043;-70
2023/10/18 04:38:52;;;;;;;8.85;5.70;;;;;;;8.18;100.00;100864.72;5261684;28;20029;-70
2023/10/18 04:41:28;;;;;;;7.10;5.05;;;;;;;8.16;100.00;100862.25;5256388;28;20027;-70
2023/10/18 04:44:05;;;;;;;8.13;6.30;;;;;;;8.17;100.00;100855.25;5256255;28;20044;-69
2023/10/18 04:46:37;;;;;;;8.35;5.85;;;;;;;8.20;100.00;100863.69;5256851;28;20471;-70
2023/10/18 04:54:15;;;;;;;6.55;5.82;;;;;;;8.21;100.00;100859.28;5258715;28;20032;-70
2023/10/18 04:56:53;;;;;;;8.18;5.47;;;;;;;8.22;100.00;100845.28;5258637;28;20028;-69
2023/10/18 04:59:29;;;;;;;7.65;5.13;;;;;;;8.24;100.00;100848.63;5262003;28;20021;-69
2023/10/18 05:02:01;;;;;;;8.30;5.53;;;;;;;8.23;100.00;100845.19;5263608;28;20029;-70
2023/10/18 05:04:33;;;;;;;8.38;5.38;;;;;;;8.25;100.00;100839.84;5261372;28;20558;-70
2023/10/18 05:07:14;;;;;;;8.57;5.15;;;;;;;8.21;100.00;100836.63;5264022;28;20362;-70
2023/10/18 05:09:55;;;;;;;8.50;5.50;;;;;;;8.27;100.00;100830.94;5262609;28;20048;-70
2023/10/18 05:12:30;;;;;;;7.00;5.57;;;;;;;8.26;100.00;100831.09;5261964;28;20037;-70
2023/10/18 05:15:17;;;;;;;10.00;5.45;;;;;;;8.23;100.00;100820.88;5261505;28;20393;-69
2023/10/18 05:17:59;;;;;;;6.93;5.03;;;;;;;8.26;100.00;100818.03;5264023;28;20366;-70
2023/10/18 05:23:24;;;;;;;7.25;5.30;;;;;;;8.27;100.00;100817.06;5263181;28;20124;-70
2023/10/18 05:26:08;;;;;;;8.50;5.95;;;;;;;8.25;100.00;100813.75;5263533;28;20037;-70
2023/10/18 05:28:57;;;;;;;8.43;5.63;;;;;;;8.25;100.00;100811.13;5261135;28;20040;-69
2023/10/18 05:31:44;;;;;;;7.78;5.60;;;;;;;8.26;100.00;100808.41;5263042;28;20409;-70
2023/10/18 05:42:13;;;;;;;7.88;5.60;;;;;;;8.22;100.00;100803.53;5266400;28;20033;-70
2023/10/18 05:44:47;;;;;;;8.90;5.85;;;;;;;8.26;100.00;100803.19;5262610;28;20045;-70
2023/10/18 05:47:19;;;;;;;7.38;5.85;;;;;;;8.18;100.00;100807.31;5265182;28;20091;-70
2023/10/18 05:49:53;;;;;;;9.82;5.93;;;;;;;8.17;100.00;100800.44;5260111;28;20032;-70
2023/10/18 05:52:37;;;;;;;7.72;5.63;;;;;;;8.16;100.00;100804.00;5262270;28;20024;-70
2023/10/18 05:55:09;;;;;;;10.05;6.20;;;;;;;8.21;100.00;100792.25;5264595;28;20028;-70
2023/10/18 05:57:42;;;;;;;7.65;5.82;;;;;;;8.18;100.00;100787.28;5261892;28;20040;-69
2023/10/18 06:00:20;;;;;;;11.15;6.15;;;;;;;8.15;100.00;100797.13;5262651;28;20043;-70
2023/10/18 06:02:52;;;;;;;8.65;6.15;;;;;;;8.16;100.00;100794.41;5260862;28;20037;-70
2023/10/18 06:05:24;;;;;;;7.50;5.78;;;;;;;8.16;100.00;100783.97;5260366;28;20059;-70
2023/10/18 06:07:56;;;;;;;9.63;5.80;;;;;;;8.16;100.00;100783.97;5261903;28;20033;-70
2023/10/18 06:10:28;;;;;;;11.33;6.77;;;;;;;8.21;100.00;100781.00;5246660;28;20041;-70
2023/10/18 06:13:09;;;;;;;8.10;6.20;;;;;;;8.12;100.00;100786.91;5262551;28;20788;-70
2023/10/18 06:15:44;;;;;;;8.13;5.90;;;;;;;8.16;100.00;100765.69;5258071;28;20442;-70
2023/10/18 06:18:18;;;;;;;10.23;6.30;;;;;;;8.15;100.00;100758.00;5261302;28;20013;-70
2023/10/18 06:20:52;;;;;;;10.45;6.55;;;;;;;8.13;100.00;100758.09;5260914;28;20029;-70
2023/10/18 06:26:08;;;;;;;7.78;6.20;;;;;;;8.13;100.00;100752.88;5264283;28;20078;-69
2023/10/18 06:28:40;;;;;;;;;;;;;;;8.75;100.00;100748.97;5254742;28;20044;-70
2023/10/18 06:31:12;;;;;;;6.95;5.45;;;;;;;8.18;100.00;100748.16;5259426;28;19916;-70
2023/10/18 06:33:44;;;;;;;9.65;5.93;;;;;;;8.20;100.00;100755.84;5263363;28;20025;-70
2023/10/18 06:36:18;;;;;;;11.13;5.32;;;;;;;8.18;100.00;100749.91;5261382;28;20546;-70
2023/10/18 06:38:51;;;;;;;9.50;5.78;;;;;;;8.16;100.00;100742.19;5258852;28;20021;-70
2023/10/18 06:41:28;;;;;;;7.38;5.78;;;;;;;8.19;100.00;100738.53;5262856;28;20021;-70
2023/10/18 06:44:00;;;;;;;7.43;5.93;;;;;;;8.19;100.00;100739.38;5259999;28;20541;-69
2023/10/18 06:46:33;;;;;;;8.55;5.65;;;;;;;8.15;100.00;100737.94;5258969;28;20028;-70
2023/10/18 06:49:10;;;;;;;6.60;5.35;;;;;;;8.23;100.00;100738.19;5258674;28;20036;-70
2023/10/18 06:51:43;;;;;;;8.73;5.25;;;;;;;8.23;100.00;100726.91;5262364;28;20032;-70
2023/10/18 06:54:15;;;;;;;8.60;5.35;;;;;;;8.24;100.00;100724.16;5262361;28;20035;-70
2023/10/18 06:56:46;;;;;;;8.07;5.47;;;;;;;8.24;100.00;100720.75;5257872;28;20032;-69
2023/10/18 06:59:26;;;;;;;10.82;5.65;;;;;;;8.26;100.00;100716.25;5259953;28;20032;-70
2023/10/18 07:01:58;;;;;;;8.77;6.10;;;;;;;8.27;100.00;100718.72;5255530;28;20040;-71
2023/10/18 07:04:39;;;;;;;7.18;5.32;;;;;;;8.31;100.00;100721.94;5254614;28;20043;-71
2023/10/18 07:07:19;;;;;;;7.43;5.00;;;;;;;8.39;100.00;100719.59;5257101;28;20037;-71
2023/10/18 07:09:56;;;;;;;7.15;5.43;;;;;;;8.37;100.00;100704.94;5257365;28;20056;-70
2023/10/18 07:12:28;;;;;;;6.88;5.88;;;;;;;8.41;100.00;100717.69;5254874;28;20029;-71
2023/10/18 07:15:00;;;;;;;8.07;5.45;;;;;;;8.46;100.00;100710.31;5255648;28;20070;-70
2023/10/18 07:17:34;;;;;;;7.45;5.85;;;;;;;8.48;100.00;100711.03;5257700;28;20029;-70
2023/10/18 07:20:15;;;;;;;7.90;5.30;;;;;;;8.53;100.00;100697.63;5258119;28;20025;-70
2023/10/18 07:22:54;;;;;;;9.23;5.68;;;;;;;8.53;100.00;100695.84;5258181;28;20045;-70
2023/10/18 07:25:31;;;;;;;10.00;5.43;;;;;;;8.57;100.00;100688.59;5258517;28;20029;-70
2023/10/18 07:28:04;;;;;;;7.22;5.40;;;;;;;8.54;100.00;100696.66;5253296;28;20040;-70
2023/10/18 07:30:44;;;;;;;8.05;5.63;;;;;;;8.61;100.00;100692.63;5253825;28;20116;-70
2023/10/18 07:33:16;;;;;;;10.07;5.20;;;;;;;8.65;100.00;100695.84;5257469;28;20466;-70
2023/10/18 07:35:48;;;;;;;11.15;5.88;;;;;;;8.69;100.00;100697.25;5255021;28;20043;-70
2023/10/18 07:38:25;;;;;;;8.85;6.15;;;;;;;8.72;100.00;100681.34;5259177;28;20025;-71
2023/10/18 07:40:59;;;;;;;10.18;5.50;;;;;;;8.77;100.00;100685.22;5259967;28;20035;-71
2023/10/18 07:43:34;;;;;;;8.35;5.28;;;;;;;8.80;100.00;100680.72;5247968;28;20076;-70
2023/10/18 07:46:18;;;;;;;7.40;4.95;;;;;;;8.87;100.00;100671.44;5253263;28;20032;-71
2023/10/18 07:48:53;;;;;;;8.30;5.68;;;;;;;8.94;100.00;100670.84;5255227;28;20024;-70
2023/10/18 07:51:26;;;;;;;7.07;5.38;;;;;;;9.01;100.00;100665.91;5259496;28;20029;-70
2023/10/18 07:53:59;;;;;;;9.40;6.22;;;;;;;9.04;100.00;100659.63;5258278;28;20035;-71
2023/10/18 07:56:31;;;;;;;7.43;5.45;;;;;;;9.11;100.00;100661.63;5253319;28;20033;-71
2023/10/18 08:04:43;;;;;;;7.60;5.40;;;;;;;9.29;100.00;100651.44;5256668;28;20537;-71
2023/10/18 08:07:15;;;;;;;8.55;5.60;;;;;;;9.36;100.00;100655.22;5251235;28;20040;-71
2023/10/18 08:09:57;;;;;;;9.68;5.50;;;;;;;9.45;100.00;100651.81;5250409;28;20036;-71
2023/10/18 08:12:33;;;;;;;6.37;5.43;;;;;;;9.55;100.00;100651.91;5252868;28;20712;-71
2023/10/18 08:15:13;;;;;;;6.47;5.43;;;;;;;9.62;100.00;100652.19;5251451;28;20032;-71
2023/10/18 08:17:46;;;;;;;7.57;5.20;;;;;;;9.71;100.00;100639.19;5253206;28;20025;-71
2023/10/18 08:23:04;;;;;;;8.25;5.40;;;;;;;9.86;100.00;100644.91;5254530;28;20494;-71
2023/10/18 08:25:37;;;;;;;9.32;5.40;;;;;;;9.88;100.00;100636.91;5252867;28;20025;-71
2023/10/18 08:28:13;;;;;;;10.88;6.68;;;;;;;9.93;100.00;100626.91;5251768;28;20025;-71
2023/10/18 08:33:19;;;;;;;8.02;5.68;;;;;;;9.95;100.00;100622.34;5255582;28;20045;-71
2023/10/18 08:35:58;;;;;;;9.35;5.38;;;;;;;10.02;100.00;100626.09;5258992;28;20402;-71
2023/10/18 08:38:32;;;;;;;8.30;5.32;;;;;;;10.05;100.00;100618.00;5258973;28;20041;-71
2023/10/18 08:41:13;;;;;;;8.90;5.90;;;;;;;10.11;100.00;100611.38;5256777;28;20471;-71
2023/10/18 08:43:58;;;;;;;6.50;5.32;;;;;;;10.27;100.00;100618.78;5257239;28;20057;-71
2023/10/18 08:46:36;;;;;;;8.43;5.30;;;;;;;10.31;100.00;100609.69;5259013;28;20033;-71
2023/10/18 08:49:15;;;;;;;10.38;5.78;;;;;;;10.24;100.00;100612.00;5256733;28;20549;-71
2023/10/18 08:51:54;;;;;;;7.95;5.20;;;;;;;10.28;100.00;100613.41;5257742;28;20033;-71
2023/10/18 08:54:30;;;;;;;7.10;5.18;;;;;;;10.28;100.00;100613.41;5255662;28;20036;-71
2023/10/18 08:57:08;;;;;;;7.28;4.78;;;;;;;10.40;100.00;100608.88;5257462;28;20509;-71
2023/10/18 08:59:46;;;;;;;9.57;5.38;;;;;;;10.45;100.00;100597.06;5255920;28;20040;-71
2023/10/18 09:02:21;;;;;;;7.38;5.25;;;;;;;10.51;100.00;100584.38;5254049;28;20024;-71
2023/10/18 09:04:54;;;;;;;7.47;5.15;;;;;;;10.64;100.00;100596.22;5258141;28;20040;-71
2023/10/18 09:07:45;;;;;;;7.85;5.50;;;;;;;10.74;100.00;100585.75;5256457;28;20032;-71
2023/10/18 09:15:49;;;;;;;8.27;5.32;;;;;;;11.01;100.00;100563.28;5257758;28;20486;-71
2023/10/18 09:18:22;;;;;;;7.45;4.82;;;;;;;11.08;100.00;100561.75;5258103;28;20032;-71
2023/10/18 09:20:55;;;;;;;6.78;4.93;;;;;;;11.21;100.00;100557.03;5255873;28;20044;-71
2023/10/18 09:23:29;;;;;;;9.82;5.32;;;;;;;11.33;100.00;100549.84;5253149;28;20028;-70
2023/10/18 09:28:35;;;;;;;5.75;4.60;;;;;;;11.47;100.00;100546.75;5257266;28;20478;-70
2023/10/18 09:31:11;;;;;;;;;;;;;;;12.15;100.00;100547.28;5251637;28;20032;-70
2023/10/18 09:33:49;;;;;;;8.98;5.03;;;;;;;11.69;100.00;100551.63;5255522;28;20305;-70
2023/10/18 09:36:23;;;;;;;6.55;4.38;;;;;;;11.76;100.00;100543.19;5254373;28;20025;-70
2023/10/18 09:38:56;;;;;;;5.97;4.35;;;;;;;11.86;100.00;100547.47;5254174;28;20392;-70
2023/10/18 09:41:30;;;;;;;6.90;5.05;;;;;;;11.91;99.95;100532.09;5259535;28;20040;-70
2023/10/18 09:44:03;;;;;;;7.22;4.50;;;;;;;12.03;96.65;100511.69;5258087;28;20049;-70
2023/10/18 09:46:36;;;;;;;5.70;4.40;;;;;;;12.07;99.42;100513.06;5254323;28;20039;-70
2023/10/18 09:49:20;;;;;;;12.07;5.25;;;;;;;12.10;100.00;100504.88;5257360;28;20043;-70
2023/10/18 09:51:54;;;;;;;7.00;4.47;;;;;;;12.25;99.97;100504.38;5258648;28;20492;-70
2023/10/18 09:54:27;;;;;;;9.07;4.35;;;;;;;12.41;99.48;100494.84;5256562;28;20406;-70
2023/10/18 09:57:01;;;;;;;6.47;4.13;;;;;;;12.49;98.37;100482.75;5258767;28;20036;-70
2023/10/18 09:59:37;;;;;;;5.47;4.07;;;;;;;12.57;94.93;100491.53;5254998;28;20525;-70
2023/10/18 10:02:15;;;;;;;7.25;4.53;;;;;;;12.69;94.05;100488.66;5257081;28;20029;-70
2023/10/18 10:04:54;;;;;;;7.95;4.13;;;;;;;12.76;94.31;100480.00;5254393;28;20035;-70
2023/10/18 10:07:37;;;;;;;6.97;4.55;;;;;;;12.91;94.93;100481.09;5247421;28;20529;-70
2023/10/18 10:10:09;;;;;;;9.43;5.18;;;;;;;13.01;94.18;100465.25;5257273;28;20037;-70
2023/10/18 10:12:42;;;;;;;7.72;4.88;;;;;;;13.03;91.27;100468.56;5253663;28;20037;-70
2023/10/18 10:15:14;;;;;;;6.78;4.47;;;;;;;13.07;90.74;100463.81;5255538;28;20505;-70
2023/10/18 10:18:00;;;;;;;6.45;4.00;;;;;;;13.23;92.82;100450.78;5255885;28;20048;-70
2023/10/18 10:20:33;;;;;;;7.65;4.32;;;;;;;13.19;91.35;100446.78;5253249;28;20056;-70
2023/10/18 10:23:14;;;;;;;6.97;4.75;;;;;;;13.20;90.50;100442.34;5259002;28;20048;-70
2023/10/18 10:26:35;;;;;;;6.05;4.10;;;;;;;13.63;91.38;100430.84;5255517;28;20510;-70
2023/10/18 10:31:55;;;;;;;6.10;4.68;;;;;;;13.61;90.60;100430.19;5257301;28;20055;-69
2023/10/18 10:34:32;;;;;;;8.88;4.40;;;;;;;13.42;90.55;100412.03;5257016;28;20028;-70
2023/10/18 10:37:07;;;;;;;7.63;4.70;;;;;;;13.52;91.66;100416.16;5255522;28;20029;-71
2023/10/18 10:39:49;;;;;;;7.60;4.65;;;;;;;13.69;91.81;100408.34;5252635;28;20036;-71
2023/10/18 10:45:38;;;;;;;7.60;4.90;;;;;;;13.91;93.25;100389.28;5254368;28;20045;-71
2023/10/18 10:50:52;;;;;;;6.82;4.28;;;;;;;14.03;89.25;100393.25;5254710;28;20053;-71
2023/10/18 10:53:50;;;;;;;9.13;5.05;;;;;;;14.36;89.78;100380.09;5252786;28;20036;-71
2023/10/18 10:56:30;;;;;;;6.55;4.18;;;;;;;14.25;85.15;100381.25;5244967;28;20404;-71
2023/10/18 11:01:39;;;;;;;9.90;4.43;;;;;;;14.21;85.31;100368.56;5240243;28;20509;-70
2023/10/18 11:04:29;;;;;;;9.27;4.72;;;;;;;14.56;88.98;100351.59;5247194;28;20033;-70
2023/10/18 11:07:03;;;;;;;6.32;4.55;;;;;;;14.39;84.77;100356.00;5250666;28;21058;-70
2023/10/18 11:09:38;;;;;;;7.20;4.43;;;;;;;14.50;88.69;100339.06;5251265;28;20045;-70
2023/10/18 11:12:12;;;;;;;6.63;4.53;;;;;;;14.53;84.08;100344.00;5251398;28;20033;-70
2023/10/18 11:14:44;;;;;;;;;;;;;;;15.11;79.44;100345.44;5250834;28;20052;-70
2023/10/18 11:19:58;;;;;;;7.07;4.93;;;;;;;14.79;82.82;100320.88;5253224;28;20040;-71
2023/10/18 11:22:30;;;;;;;9.65;4.90;;;;;;;14.95;82.05;100313.88;5255544;28;20302;-72
2023/10/18 11:25:06;;;;;;;7.07;4.70;;;;;;;14.88;82.31;100313.72;5251593;28;20033;-70
2023/10/18 11:27:38;;;;;;;6.95;4.65;;;;;;;14.97;80.23;100304.00;5252302;28;20406;-71
2023/10/18 11:30:22;;;;;;;6.57;4.90;;;;;;;14.95;80.90;100303.31;5252498;28;20310;-71
2023/10/18 11:32:55;;;;;;;6.35;4.78;;;;;;;14.94;79.64;100307.78;5244306;28;20029;-71
2023/10/18 11:35:48;;;;;;;;;;;;;;;15.69;80.85;100301.94;5254636;28;20036;-71
2023/10/18 11:38:19;;;;;;;;;;;;;;;15.74;80.22;100302.22;5252960;28;19920;-71
2023/10/18 11:40:51;;;;;;;;;;;;;;;15.86;80.10;100301.81;5254872;28;19925;-71
2023/10/18 11:43:26;;;;;;;;;;;;;;;15.88;78.66;100284.78;5251051;28;19920;-71
2023/10/18 11:46:08;;;;;;;;;;;;;;;16.05;79.27;100274.88;5252455;28;20401;-71
2023/10/18 11:48:41;;;;;;;;;;;;;;;16.06;78.00;100271.22;5250234;28;19917;-71
2023/10/18 11:51:13;;;;;;;;;;;;;;;16.12;75.90;100259.94;5252040;28;19920;-71
2023/10/18 11:53:51;;;;;;;;;;;;;;;16.01;75.94;100247.19;5251653;28;19913;-71
2023/10/18 11:56:22;;;;;;;;;;;;;;;16.10;76.12;100254.03;5252106;28;20366;-71
2023/10/18 11:59:00;;;;;;;;;;;;;;;16.15;75.87;100237.63;5254371;28;19916;-71
2023/10/18 12:01:34;;;;;;;;;;;;;;;16.17;75.20;100236.44;5254200;28;19917;-71
2023/10/18 12:04:06;;;;;;;;;;;;;;;16.25;77.03;100241.66;5254442;28;20267;-71
2023/10/18 12:06:38;;;;;;;;;;;;;;;16.29;76.40;100244.75;5253357;28;19924;-71
2023/10/18 12:11:45;;;;;;;;;;;;;;;16.41;74.62;100218.69;5256136;28;19992;-71
2023/10/18 12:14:18;;;;;;;;;;;;;;;16.39;72.38;100210.09;5256253;28;19927;-70
2023/10/18 12:16:50;;;;;;;;;;;;;;;16.43;73.12;100203.44;5257610;28;20350;-71
2023/10/18 12:19:22;;;;;;;;;;;;;;;16.37;72.20;100199.72;5256920;28;19923;-70
2023/10/18 12:21:54;;;;;;;;;;;;;;;16.52;74.02;100186.50;5257105;28;20300;-70
2023/10/18 12:24:27;;;;;;;;;;;;;;;16.57;72.60;100193.84;5259145;28;19916;-71
2023/10/18 12:27:07;;;;;;;;;;;;;;;16.62;72.81;100183.53;5257364;28;19946;-70
2023/10/18 12:29:38;;;;;;;;;;;;;;;16.58;73.48;100191.03;5255164;28;19917;-71
2023/10/18 12:32:23;;;;;;;;;;;;;;;16.63;73.29;100178.09;5255895;28;19968;-70
2023/10/18 12:34:57;;;;;;;;;;;;;;;16.54;70.90;100179.16;5256392;28;19920;-70
2023/10/18 12:37:32;;;;;;;;;;;;;;;16.66;72.36;100166.28;5255363;28;19921;-70
2023/10/18 12:40:14;;;;;;;;;;;;;;;16.81;74.02;100153.06;5256583;28;20357;-70
2023/10/18 12:42:46;;;;;;;;;;;;;;;16.84;74.53;100142.09;5258365;28;19916;-71
2023/10/18 12:45:18;;;;;;;;;;;;;;;16.80;70.60;100143.50;5258269;28;20273;-70
2023/10/18 12:47:51;;;;;;;;;;;;;;;16.77;69.41;100142.84;5258301;28;19913;-71
2023/10/18 12:50:27;;;;;;;;;;;;;;;16.87;72.59;100125.84;5255947;28;19927;-71
2023/10/18 12:53:17;;;;;;;;;;;;;;;16.84;69.14;100113.81;5257748;28;19943;-71
2023/10/18 12:55:57;;;;;;;;;;;;;;;16.80;68.98;100109.09;5254434;28;19917;-71
2023/10/18 12:58:29;;;;;;;;;;;;;;;16.89;71.13;100103.47;5255260;28;20132;-71
2023/10/18 13:01:08;;;;;;;;;;;;;;;16.88;70.24;100104.50;5260743;28;19923;-72
2023/10/18 13:03:56;;;;;;;;;;;;;;;16.91;71.58;100095.38;5253011;28;19924;-72
2023/10/18 13:06:31;;;;;;;;;;;;;;;16.82;69.72;100086.75;5238236;28;20472;-71
2023/10/18 13:09:15;;;;;;;;;;;;;;;16.87;70.43;100075.59;5242273;28;19936;-71
2023/10/18 13:14:31;;;;;;;;;;;;;;;16.86;70.51;100060.72;5253950;28;19920;-71
2023/10/18 13:17:05;;;;;;;;;;;;;;;16.77;72.12;100047.63;5255130;28;19927;-71